sensor_id;sensor_type;location;lat;lon;timestamp;temperature;humidity
7388;DHT22;3735;50.136;11.062;2022-12-18T00:01:30;-11.70;99.90
7388;DHT22;3735;50.136;11.062;2022-12-18T00:04:00;-11.80;99.90
7388;DHT22;3735;50.136;11.062;2022-12-18T00:06:29;-11.90;99.90
7388;DHT22;3735;50.136;11.062;2022-12-18T00:08:56;-12.00;99.90
7388;DHT22;3735;50.136;11.062;2022-12-18T00:11:26;-12.00;99.90
7388;DHT22;3735;50.136;11.062;2022-12-18T00:13:55;-12.00;99.90
7388;DHT22;3735;50.136;11.062;2022-12-18T00:16:23;-12.10;99.90
7388;DHT22;3735;50.136;11.062;2022-12-18T00:18:54;-12.00;99.90
7388;DHT22;3735;50.136;11.062;2022-12-18T00:21:23;-12.10;99.90
7388;DHT22;3735;50.136;11.062;2022-12-18T00:23:49;-12.00;99.90
7388;DHT22;3735;50.136;11.062;2022-12-18T00:26:24;-11.90;99.90
7388;DHT22;3735;50.136;11.062;2022-12-18T00:28:57;-11.90;99.90
7388;DHT22;3735;50.136;11.062;2022-12-18T00:31:25;-12.00;99.90
7388;DHT22;3735;50.136;11.062;2022-12-18T00:33:53;-12.10;99.90
7388;DHT22;3735;50.136;11.062;2022-12-18T00:36:23;-12.10;99.90
7388;DHT22;3735;50.136;11.062;2022-12-18T00:38:54;-12.00;99.90
7388;DHT22;3735;50.136;11.062;2022-12-18T00:41:21;-12.00;99.90
7388;DHT22;3735;50.136;11.062;2022-12-18T00:44:08;-12.00;99.90
7388;DHT22;3735;50.136;11.062;2022-12-18T00:46:35;-12.00;99.90
7388;DHT22;3735;50.136;11.062;2022-12-18T00:49:02;-12.10;99.90
7388;DHT22;3735;50.136;11.062;2022-12-18T00:51:28;-12.20;99.90
7388;DHT22;3735;50.136;11.062;2022-12-18T00:53:54;-12.30;99.90
7388;DHT22;3735;50.136;11.062;2022-12-18T00:56:19;-12.40;99.90
7388;DHT22;3735;50.136;11.062;2022-12-18T00:58:46;-12.50;99.90
7388;DHT22;3735;50.136;11.062;2022-12-18T01:01:12;-12.40;99.90
7388;DHT22;3735;50.136;11.062;2022-12-18T01:03:38;-12.40;99.90
7388;DHT22;3735;50.136;11.062;2022-12-18T01:06:09;-12.20;99.90
7388;DHT22;3735;50.136;11.062;2022-12-18T01:08:37;-12.10;99.90
7388;DHT22;3735;50.136;11.062;2022-12-18T01:11:09;-12.10;99.90
7388;DHT22;3735;50.136;11.062;2022-12-18T01:13:37;-12.10;99.90
7388;DHT22;3735;50.136;11.062;2022-12-18T01:16:03;-12.10;99.90
7388;DHT22;3735;50.136;11.062;2022-12-18T01:18:29;-12.10;99.90
7388;DHT22;3735;50.136;11.062;2022-12-18T01:20:54;-12.20;99.90
7388;DHT22;3735;50.136;11.062;2022-12-18T01:23:20;-12.30;99.90
7388;DHT22;3735;50.136;11.062;2022-12-18T01:25:46;-12.20;99.90
7388;DHT22;3735;50.136;11.062;2022-12-18T01:28:12;-12.20;99.90
7388;DHT22;3735;50.136;11.062;2022-12-18T01:30:37;-12.30;99.90
7388;DHT22;3735;50.136;11.062;2022-12-18T01:33:06;-12.30;99.90
7388;DHT22;3735;50.136;11.062;2022-12-18T01:35:32;-12.30;99.90
7388;DHT22;3735;50.136;11.062;2022-12-18T01:37:58;-12.30;99.90
7388;DHT22;3735;50.136;11.062;2022-12-18T01:40:23;-12.30;99.90
7388;DHT22;3735;50.136;11.062;2022-12-18T01:42:53;-12.30;99.90
7388;DHT22;3735;50.136;11.062;2022-12-18T01:47:59;-12.30;99.90
7388;DHT22;3735;50.136;11.062;2022-12-18T01:53:15;-12.30;99.90
7388;DHT22;3735;50.136;11.062;2022-12-18T01:55:52;-12.40;99.90
7388;DHT22;3735;50.136;11.062;2022-12-18T01:58:20;-12.40;99.90
7388;DHT22;3735;50.136;11.062;2022-12-18T02:00:51;-12.40;99.90
7388;DHT22;3735;50.136;11.062;2022-12-18T02:03:16;-12.40;99.90
7388;DHT22;3735;50.136;11.062;2022-12-18T02:17:10;-12.40;99.90
7388;DHT22;3735;50.136;11.062;2022-12-18T02:23:05;-12.50;99.90
7388;DHT22;3735;50.136;11.062;2022-12-18T02:28:20;-12.50;99.90
7388;DHT22;3735;50.136;11.062;2022-12-18T02:30:52;-12.50;99.90
7388;DHT22;3735;50.136;11.062;2022-12-18T02:33:22;-12.40;99.90
7388;DHT22;3735;50.136;11.062;2022-12-18T02:35:51;-12.50;99.90
7388;DHT22;3735;50.136;11.062;2022-12-18T02:38:19;-12.60;99.90
7388;DHT22;3735;50.136;11.062;2022-12-18T02:40:46;-12.60;99.90
7388;DHT22;3735;50.136;11.062;2022-12-18T02:43:15;-12.70;99.90
7388;DHT22;3735;50.136;11.062;2022-12-18T02:45:59;-12.70;99.90
7388;DHT22;3735;50.136;11.062;2022-12-18T02:48:46;-12.80;99.90
7388;DHT22;3735;50.136;11.062;2022-12-18T02:51:26;-12.80;99.90
7388;DHT22;3735;50.136;11.062;2022-12-18T02:54:10;-12.90;99.90
7388;DHT22;3735;50.136;11.062;2022-12-18T02:56:50;-13.00;99.90
7388;DHT22;3735;50.136;11.062;2022-12-18T02:59:33;-12.80;99.90
7388;DHT22;3735;50.136;11.062;2022-12-18T03:02:16;-12.70;99.90
7388;DHT22;3735;50.136;11.062;2022-12-18T03:07:50;-12.80;99.90
7388;DHT22;3735;50.136;11.062;2022-12-18T03:10:24;-12.90;99.90
7388;DHT22;3735;50.136;11.062;2022-12-18T03:13:03;-12.90;99.90
7388;DHT22;3735;50.136;11.062;2022-12-18T03:15:35;-12.80;99.90
7388;DHT22;3735;50.136;11.062;2022-12-18T03:18:13;-12.70;99.90
7388;DHT22;3735;50.136;11.062;2022-12-18T03:20:45;-12.80;99.90
7388;DHT22;3735;50.136;11.062;2022-12-18T03:23:18;-12.70;99.90
7388;DHT22;3735;50.136;11.062;2022-12-18T03:25:50;-12.80;99.90
7388;DHT22;3735;50.136;11.062;2022-12-18T03:28:21;-12.70;99.90
7388;DHT22;3735;50.136;11.062;2022-12-18T03:30:52;-12.60;99.90
7388;DHT22;3735;50.136;11.062;2022-12-18T03:33:57;-12.60;99.90
7388;DHT22;3735;50.136;11.062;2022-12-18T03:36:26;-12.60;99.90
7388;DHT22;3735;50.136;11.062;2022-12-18T03:38:52;-12.70;99.90
7388;DHT22;3735;50.136;11.062;2022-12-18T03:45:22;-12.50;99.90
7388;DHT22;3735;50.136;11.062;2022-12-18T03:48:55;-12.50;99.90
7388;DHT22;3735;50.136;11.062;2022-12-18T03:50:58;-12.50;99.90
7388;DHT22;3735;50.136;11.062;2022-12-18T03:53:55;-12.50;99.90
7388;DHT22;3735;50.136;11.062;2022-12-18T03:56:28;-12.50;99.90
7388;DHT22;3735;50.136;11.062;2022-12-18T03:58:59;-12.50;99.90
7388;DHT22;3735;50.136;11.062;2022-12-18T04:01:34;-12.50;99.90
7388;DHT22;3735;50.136;11.062;2022-12-18T04:04:05;-12.60;99.90
7388;DHT22;3735;50.136;11.062;2022-12-18T04:06:32;-12.60;99.90
7388;DHT22;3735;50.136;11.062;2022-12-18T04:08:59;-12.80;99.90
7388;DHT22;3735;50.136;11.062;2022-12-18T04:11:25;-12.80;99.90
7388;DHT22;3735;50.136;11.062;2022-12-18T04:13:55;-12.90;99.90
7388;DHT22;3735;50.136;11.062;2022-12-18T04:16:25;-12.80;99.90
7388;DHT22;3735;50.136;11.062;2022-12-18T04:18:52;-12.80;99.90
7388;DHT22;3735;50.136;11.062;2022-12-18T04:21:18;-12.90;99.90
7388;DHT22;3735;50.136;11.062;2022-12-18T04:23:45;-12.90;99.90
7388;DHT22;3735;50.136;11.062;2022-12-18T04:26:10;-12.90;99.90
7388;DHT22;3735;50.136;11.062;2022-12-18T04:28:36;-12.80;99.90
7388;DHT22;3735;50.136;11.062;2022-12-18T04:31:04;-12.80;99.90
7388;DHT22;3735;50.136;11.062;2022-12-18T04:33:30;-12.90;99.90
7388;DHT22;3735;50.136;11.062;2022-12-18T04:35:56;-12.90;99.90
7388;DHT22;3735;50.136;11.062;2022-12-18T04:38:22;-12.90;99.90
7388;DHT22;3735;50.136;11.062;2022-12-18T04:40:47;-13.00;99.90
7388;DHT22;3735;50.136;11.062;2022-12-18T04:43:13;-13.10;99.90
7388;DHT22;3735;50.136;11.062;2022-12-18T04:45:39;-13.20;99.90
7388;DHT22;3735;50.136;11.062;2022-12-18T04:48:05;-13.20;99.90
7388;DHT22;3735;50.136;11.062;2022-12-18T04:50:31;-13.30;99.90
7388;DHT22;3735;50.136;11.062;2022-12-18T04:52:57;-13.30;99.90
7388;DHT22;3735;50.136;11.062;2022-12-18T04:55:23;-13.30;99.90
7388;DHT22;3735;50.136;11.062;2022-12-18T04:57:49;-13.50;99.90
7388;DHT22;3735;50.136;11.062;2022-12-18T05:00:14;-13.60;99.90
7388;DHT22;3735;50.136;11.062;2022-12-18T05:02:40;-13.70;99.90
7388;DHT22;3735;50.136;11.062;2022-12-18T05:05:07;-13.80;99.90
7388;DHT22;3735;50.136;11.062;2022-12-18T05:07:33;-13.90;99.90
7388;DHT22;3735;50.136;11.062;2022-12-18T05:09:59;-14.00;99.90
7388;DHT22;3735;50.136;11.062;2022-12-18T05:12:24;-14.00;99.90
7388;DHT22;3735;50.136;11.062;2022-12-18T05:14:51;-14.10;99.90
7388;DHT22;3735;50.136;11.062;2022-12-18T05:17:17;-14.10;99.90
7388;DHT22;3735;50.136;11.062;2022-12-18T05:19:43;-14.20;99.90
7388;DHT22;3735;50.136;11.062;2022-12-18T05:22:09;-14.20;99.90
7388;DHT22;3735;50.136;11.062;2022-12-18T05:24:35;-14.20;99.90
7388;DHT22;3735;50.136;11.062;2022-12-18T05:27:01;-14.30;99.90
7388;DHT22;3735;50.136;11.062;2022-12-18T05:29:27;-14.30;99.90
7388;DHT22;3735;50.136;11.062;2022-12-18T05:31:53;-14.30;99.90
7388;DHT22;3735;50.136;11.062;2022-12-18T05:34:18;-14.30;99.90
7388;DHT22;3735;50.136;11.062;2022-12-18T05:36:44;-14.40;99.90
7388;DHT22;3735;50.136;11.062;2022-12-18T05:39:10;-14.40;99.90
7388;DHT22;3735;50.136;11.062;2022-12-18T05:41:35;-14.40;99.90
7388;DHT22;3735;50.136;11.062;2022-12-18T05:44:01;-14.30;99.90
7388;DHT22;3735;50.136;11.062;2022-12-18T05:46:27;-14.20;99.90
7388;DHT22;3735;50.136;11.062;2022-12-18T05:48:53;-14.20;99.90
7388;DHT22;3735;50.136;11.062;2022-12-18T05:51:21;-14.30;99.90
7388;DHT22;3735;50.136;11.062;2022-12-18T05:53:47;-14.40;99.90
7388;DHT22;3735;50.136;11.062;2022-12-18T05:56:17;-14.40;99.90
7388;DHT22;3735;50.136;11.062;2022-12-18T05:58:45;-14.50;99.90
7388;DHT22;3735;50.136;11.062;2022-12-18T06:01:20;-14.60;99.90
7388;DHT22;3735;50.136;11.062;2022-12-18T06:03:49;-14.60;99.90
7388;DHT22;3735;50.136;11.062;2022-12-18T06:06:26;-14.50;99.90
7388;DHT22;3735;50.136;11.062;2022-12-18T06:08:53;-14.60;99.90
7388;DHT22;3735;50.136;11.062;2022-12-18T06:11:23;-14.50;99.90
7388;DHT22;3735;50.136;11.062;2022-12-18T06:13:52;-14.50;99.90
7388;DHT22;3735;50.136;11.062;2022-12-18T06:16:19;-14.60;99.90
7388;DHT22;3735;50.136;11.062;2022-12-18T06:18:44;-14.60;99.90
7388;DHT22;3735;50.136;11.062;2022-12-18T06:21:10;-14.60;99.90
7388;DHT22;3735;50.136;11.062;2022-12-18T06:23:36;-14.70;99.90
7388;DHT22;3735;50.136;11.062;2022-12-18T06:26:06;-14.70;99.90
7388;DHT22;3735;50.136;11.062;2022-12-18T06:28:34;-14.70;99.90
7388;DHT22;3735;50.136;11.062;2022-12-18T06:30:59;-14.70;99.90
7388;DHT22;3735;50.136;11.062;2022-12-18T06:33:28;-14.70;99.90
7388;DHT22;3735;50.136;11.062;2022-12-18T06:35:58;-14.70;99.90
7388;DHT22;3735;50.136;11.062;2022-12-18T06:38:25;-14.70;99.90
7388;DHT22;3735;50.136;11.062;2022-12-18T06:40:51;-14.70;99.90
7388;DHT22;3735;50.136;11.062;2022-12-18T06:43:17;-14.70;99.90
7388;DHT22;3735;50.136;11.062;2022-12-18T06:45:43;-14.70;99.90
7388;DHT22;3735;50.136;11.062;2022-12-18T06:48:08;-14.70;99.90
7388;DHT22;3735;50.136;11.062;2022-12-18T06:50:34;-14.60;99.90
7388;DHT22;3735;50.136;11.062;2022-12-18T06:53:00;-14.50;99.90
7388;DHT22;3735;50.136;11.062;2022-12-18T06:55:26;-14.50;99.90
7388;DHT22;3735;50.136;11.062;2022-12-18T06:57:51;-14.50;99.90
7388;DHT22;3735;50.136;11.062;2022-12-18T07:00:17;-14.50;99.90
7388;DHT22;3735;50.136;11.062;2022-12-18T07:02:43;-14.50;99.90
7388;DHT22;3735;50.136;11.062;2022-12-18T07:05:09;-14.30;99.90
7388;DHT22;3735;50.136;11.062;2022-12-18T07:07:35;-14.10;99.90
7388;DHT22;3735;50.136;11.062;2022-12-18T07:10:01;-14.10;99.90
7388;DHT22;3735;50.136;11.062;2022-12-18T07:12:27;-14.00;99.90
7388;DHT22;3735;50.136;11.062;2022-12-18T07:14:53;-14.00;99.90
7388;DHT22;3735;50.136;11.062;2022-12-18T07:17:18;-14.00;99.90
7388;DHT22;3735;50.136;11.062;2022-12-18T07:19:44;-14.00;99.90
7388;DHT22;3735;50.136;11.062;2022-12-18T07:22:10;-14.00;99.90
7388;DHT22;3735;50.136;11.062;2022-12-18T07:24:36;-13.90;99.90
7388;DHT22;3735;50.136;11.062;2022-12-18T07:27:01;-14.00;99.90
7388;DHT22;3735;50.136;11.062;2022-12-18T07:29:27;-14.00;99.90
7388;DHT22;3735;50.136;11.062;2022-12-18T07:31:53;-14.00;99.90
7388;DHT22;3735;50.136;11.062;2022-12-18T07:34:19;-14.00;99.90
7388;DHT22;3735;50.136;11.062;2022-12-18T07:36:45;-14.00;99.90
7388;DHT22;3735;50.136;11.062;2022-12-18T07:39:11;-13.90;99.90
7388;DHT22;3735;50.136;11.062;2022-12-18T07:41:37;-13.90;99.90
7388;DHT22;3735;50.136;11.062;2022-12-18T07:44:03;-13.90;99.90
7388;DHT22;3735;50.136;11.062;2022-12-18T07:46:29;-13.90;99.90
7388;DHT22;3735;50.136;11.062;2022-12-18T07:48:55;-13.90;99.90
7388;DHT22;3735;50.136;11.062;2022-12-18T07:51:21;-13.90;99.90
7388;DHT22;3735;50.136;11.062;2022-12-18T07:53:46;-13.80;99.90
7388;DHT22;3735;50.136;11.062;2022-12-18T07:56:13;-13.80;99.90
7388;DHT22;3735;50.136;11.062;2022-12-18T07:58:38;-13.80;99.90
7388;DHT22;3735;50.136;11.062;2022-12-18T08:01:11;-13.80;99.90
7388;DHT22;3735;50.136;11.062;2022-12-18T08:03:38;-13.70;99.90
7388;DHT22;3735;50.136;11.062;2022-12-18T08:06:07;-13.70;99.90
7388;DHT22;3735;50.136;11.062;2022-12-18T08:08:35;-13.60;99.90
7388;DHT22;3735;50.136;11.062;2022-12-18T08:11:01;-13.60;99.90
7388;DHT22;3735;50.136;11.062;2022-12-18T08:13:27;-13.50;99.90
7388;DHT22;3735;50.136;11.062;2022-12-18T08:16:05;-13.40;99.90
7388;DHT22;3735;50.136;11.062;2022-12-18T08:18:33;-13.40;99.90
7388;DHT22;3735;50.136;11.062;2022-12-18T08:23:42;-13.20;99.90
7388;DHT22;3735;50.136;11.062;2022-12-18T08:26:09;-13.10;99.90
7388;DHT22;3735;50.136;11.062;2022-12-18T08:28:35;-13.00;99.90
7388;DHT22;3735;50.136;11.062;2022-12-18T08:31:01;-12.90;99.90
7388;DHT22;3735;50.136;11.062;2022-12-18T08:33:27;-12.80;99.90
7388;DHT22;3735;50.136;11.062;2022-12-18T08:35:52;-12.70;99.90
7388;DHT22;3735;50.136;11.062;2022-12-18T08:38:18;-12.60;99.90
7388;DHT22;3735;50.136;11.062;2022-12-18T08:40:44;-12.50;99.90
7388;DHT22;3735;50.136;11.062;2022-12-18T08:43:10;-12.40;99.90
7388;DHT22;3735;50.136;11.062;2022-12-18T08:45:55;-12.20;99.90
7388;DHT22;3735;50.136;11.062;2022-12-18T08:48:21;-12.10;99.90
7388;DHT22;3735;50.136;11.062;2022-12-18T08:50:57;-12.00;99.90
7388;DHT22;3735;50.136;11.062;2022-12-18T08:53:24;-11.80;99.90
7388;DHT22;3735;50.136;11.062;2022-12-18T08:55:49;-11.70;99.90
7388;DHT22;3735;50.136;11.062;2022-12-18T08:58:15;-11.70;99.90
7388;DHT22;3735;50.136;11.062;2022-12-18T09:00:41;-11.60;99.90
7388;DHT22;3735;50.136;11.062;2022-12-18T09:03:14;-11.50;99.90
7388;DHT22;3735;50.136;11.062;2022-12-18T09:05:41;-11.40;99.90
7388;DHT22;3735;50.136;11.062;2022-12-18T09:08:07;-11.30;99.90
7388;DHT22;3735;50.136;11.062;2022-12-18T09:10:33;-11.20;99.90
7388;DHT22;3735;50.136;11.062;2022-12-18T09:12:59;-11.10;99.90
7388;DHT22;3735;50.136;11.062;2022-12-18T09:15:25;-11.00;99.90
7388;DHT22;3735;50.136;11.062;2022-12-18T09:17:51;-10.80;99.90
7388;DHT22;3735;50.136;11.062;2022-12-18T09:20:18;-10.70;99.90
7388;DHT22;3735;50.136;11.062;2022-12-18T09:22:44;-10.50;99.90
7388;DHT22;3735;50.136;11.062;2022-12-18T09:25:10;-10.40;99.90
7388;DHT22;3735;50.136;11.062;2022-12-18T09:27:35;-10.20;99.90
7388;DHT22;3735;50.136;11.062;2022-12-18T09:30:02;-10.10;99.90
7388;DHT22;3735;50.136;11.062;2022-12-18T09:32:28;-9.90;99.90
7388;DHT22;3735;50.136;11.062;2022-12-18T09:34:54;-9.70;99.90
7388;DHT22;3735;50.136;11.062;2022-12-18T09:37:19;-9.50;99.90
7388;DHT22;3735;50.136;11.062;2022-12-18T09:39:45;-9.30;99.90
7388;DHT22;3735;50.136;11.062;2022-12-18T09:42:20;-9.10;99.90
7388;DHT22;3735;50.136;11.062;2022-12-18T09:44:53;-8.90;99.90
7388;DHT22;3735;50.136;11.062;2022-12-18T09:47:30;-8.40;99.90
7388;DHT22;3735;50.136;11.062;2022-12-18T09:50:05;-6.00;99.90
7388;DHT22;3735;50.136;11.062;2022-12-18T09:52:45;-3.60;99.90
7388;DHT22;3735;50.136;11.062;2022-12-18T09:55:43;-1.80;99.90
7388;DHT22;3735;50.136;11.062;2022-12-18T10:01:12;0.20;99.90
7388;DHT22;3735;50.136;11.062;2022-12-18T10:03:41;1.00;99.90
7388;DHT22;3735;50.136;11.062;2022-12-18T10:06:11;1.60;99.90
7388;DHT22;3735;50.136;11.062;2022-12-18T10:19:56;5.00;99.90
7388;DHT22;3735;50.136;11.062;2022-12-18T10:22:52;5.50;99.90
7388;DHT22;3735;50.136;11.062;2022-12-18T10:28:10;6.10;99.90
7388;DHT22;3735;50.136;11.062;2022-12-18T10:30:39;6.20;99.90
7388;DHT22;3735;50.136;11.062;2022-12-18T10:33:16;6.30;99.90
7388;DHT22;3735;50.136;11.062;2022-12-18T10:35:45;6.80;99.90
7388;DHT22;3735;50.136;11.062;2022-12-18T10:46:10;7.00;99.90
7388;DHT22;3735;50.136;11.062;2022-12-18T10:54:21;8.00;99.90
7388;DHT22;3735;50.136;11.062;2022-12-18T10:56:49;8.10;99.90
7388;DHT22;3735;50.136;11.062;2022-12-18T10:59:16;8.60;99.90
7388;DHT22;3735;50.136;11.062;2022-12-18T11:01:56;8.70;99.90
7388;DHT22;3735;50.136;11.062;2022-12-18T11:04:32;8.40;99.90
7388;DHT22;3735;50.136;11.062;2022-12-18T11:07:03;8.70;99.90
7388;DHT22;3735;50.136;11.062;2022-12-18T11:09:40;8.90;99.90
7388;DHT22;3735;50.136;11.062;2022-12-18T11:12:16;8.00;99.90
7388;DHT22;3735;50.136;11.062;2022-12-18T11:14:49;6.10;99.90
7388;DHT22;3735;50.136;11.062;2022-12-18T11:17:32;4.40;99.90
7388;DHT22;3735;50.136;11.062;2022-12-18T11:20:05;2.50;99.90
7388;DHT22;3735;50.136;11.062;2022-12-18T11:22:58;1.40;99.90
7388;DHT22;3735;50.136;11.062;2022-12-18T11:25:29;0.70;99.90
7388;DHT22;3735;50.136;11.062;2022-12-18T11:33:59;-0.50;99.90
7388;DHT22;3735;50.136;11.062;2022-12-18T11:36:32;-0.70;99.90
7388;DHT22;3735;50.136;11.062;2022-12-18T11:39:09;-0.80;99.90
7388;DHT22;3735;50.136;11.062;2022-12-18T11:53:02;7.10;99.90
7388;DHT22;3735;50.136;11.062;2022-12-18T12:01:00;7.50;99.90
7388;DHT22;3735;50.136;11.062;2022-12-18T12:15:58;8.80;99.90
7388;DHT22;3735;50.136;11.062;2022-12-18T12:21:58;6.50;99.90
7388;DHT22;3735;50.136;11.062;2022-12-18T12:25:01;5.40;99.90
7388;DHT22;3735;50.136;11.062;2022-12-18T12:31:01;5.00;99.90
7388;DHT22;3735;50.136;11.062;2022-12-18T12:34:24;4.70;99.90
7388;DHT22;3735;50.136;11.062;2022-12-18T12:40:02;3.50;99.90
7388;DHT22;3735;50.136;11.062;2022-12-18T12:42:35;3.40;99.90
7388;DHT22;3735;50.136;11.062;2022-12-18T12:45:32;3.60;99.90
7388;DHT22;3735;50.136;11.062;2022-12-18T12:48:21;3.50;99.90
7388;DHT22;3735;50.136;11.062;2022-12-18T12:51:18;3.80;99.90
7388;DHT22;3735;50.136;11.062;2022-12-18T12:53:47;4.40;99.90
7388;DHT22;3735;50.136;11.062;2022-12-18T12:56:16;4.10;99.90
7388;DHT22;3735;50.136;11.062;2022-12-18T13:02:03;4.50;99.90
7388;DHT22;3735;50.136;11.062;2022-12-18T13:07:45;3.30;99.90
7388;DHT22;3735;50.136;11.062;2022-12-18T13:10:38;2.60;99.90
7388;DHT22;3735;50.136;11.062;2022-12-18T13:13:15;2.00;99.90
7388;DHT22;3735;50.136;11.062;2022-12-18T13:15:47;1.40;99.90
7388;DHT22;3735;50.136;11.062;2022-12-18T13:18:25;0.90;99.90
7388;DHT22;3735;50.136;11.062;2022-12-18T13:23:36;0.00;99.90
7388;DHT22;3735;50.136;11.062;2022-12-18T13:34:27;-1.00;99.90
7388;DHT22;3735;50.136;11.062;2022-12-18T13:48:38;-1.60;99.90
7388;DHT22;3735;50.136;11.062;2022-12-18T13:51:10;-1.60;99.90
7388;DHT22;3735;50.136;11.062;2022-12-18T13:53:47;-1.70;99.90
7388;DHT22;3735;50.136;11.062;2022-12-18T13:56:26;-1.90;99.90
7388;DHT22;3735;50.136;11.062;2022-12-18T13:59:16;-2.10;99.90
7388;DHT22;3735;50.136;11.062;2022-12-18T14:01:56;-2.20;99.90
7388;DHT22;3735;50.136;11.062;2022-12-18T14:04:33;-2.40;99.90
7388;DHT22;3735;50.136;11.062;2022-12-18T14:07:25;-2.50;99.90
7388;DHT22;3735;50.136;11.062;2022-12-18T14:09:58;-2.60;99.90
7388;DHT22;3735;50.136;11.062;2022-12-18T14:12:32;-2.80;99.90
7388;DHT22;3735;50.136;11.062;2022-12-18T14:15:33;-3.00;99.90
7388;DHT22;3735;50.136;11.062;2022-12-18T14:21:21;-3.30;99.90
7388;DHT22;3735;50.136;11.062;2022-12-18T14:24:13;-3.50;99.90
7388;DHT22;3735;50.136;11.062;2022-12-18T14:26:42;-3.70;99.90
7388;DHT22;3735;50.136;11.062;2022-12-18T14:29:35;-3.80;99.90
7388;DHT22;3735;50.136;11.062;2022-12-18T14:32:14;-3.90;99.90
7388;DHT22;3735;50.136;11.062;2022-12-18T14:34:50;-4.10;99.90
7388;DHT22;3735;50.136;11.062;2022-12-18T14:37:23;-4.10;99.90
7388;DHT22;3735;50.136;11.062;2022-12-18T14:40:01;-4.20;99.90
7388;DHT22;3735;50.136;11.062;2022-12-18T14:42:28;-4.30;99.90
7388;DHT22;3735;50.136;11.062;2022-12-18T14:48:19;-4.60;99.90
7388;DHT22;3735;50.136;11.062;2022-12-18T14:50:56;-4.80;99.90
7388;DHT22;3735;50.136;11.062;2022-12-18T14:53:40;-5.00;99.90
7388;DHT22;3735;50.136;11.062;2022-12-18T14:58:55;-5.30;99.90
7388;DHT22;3735;50.136;11.062;2022-12-18T15:01:37;-5.50;99.90
7388;DHT22;3735;50.136;11.062;2022-12-18T15:04:19;-5.60;99.90
7388;DHT22;3735;50.136;11.062;2022-12-18T15:07:22;-5.70;99.90
7388;DHT22;3735;50.136;11.062;2022-12-18T15:10:09;-5.80;99.90
7388;DHT22;3735;50.136;11.062;2022-12-18T15:20:43;-6.20;99.90
7388;DHT22;3735;50.136;11.062;2022-12-18T15:26:08;-6.40;99.90
7388;DHT22;3735;50.136;11.062;2022-12-18T15:28:55;-6.50;99.90
7388;DHT22;3735;50.136;11.062;2022-12-18T15:31:34;-6.50;99.90
7388;DHT22;3735;50.136;11.062;2022-12-18T15:34:12;-6.50;99.90
7388;DHT22;3735;50.136;11.062;2022-12-18T15:36:43;-6.60;99.90
7388;DHT22;3735;50.136;11.062;2022-12-18T15:39:12;-6.60;99.90
7388;DHT22;3735;50.136;11.062;2022-12-18T15:41:38;-6.70;99.90
7388;DHT22;3735;50.136;11.062;2022-12-18T15:44:23;-6.70;99.90
7388;DHT22;3735;50.136;11.062;2022-12-18T15:46:50;-6.70;99.90
7388;DHT22;3735;50.136;11.062;2022-12-18T15:49:16;-6.70;99.90
7388;DHT22;3735;50.136;11.062;2022-12-18T15:51:42;-6.80;99.90
7388;DHT22;3735;50.136;11.062;2022-12-18T15:54:11;-6.80;99.90
7388;DHT22;3735;50.136;11.062;2022-12-18T15:56:41;-6.90;99.90
7388;DHT22;3735;50.136;11.062;2022-12-18T15:59:25;-7.00;99.90
7388;DHT22;3735;50.136;11.062;2022-12-18T16:01:52;-7.10;99.90
7388;DHT22;3735;50.136;11.062;2022-12-18T16:04:20;-7.10;99.90
7388;DHT22;3735;50.136;11.062;2022-12-18T16:06:47;-7.10;99.90
7388;DHT22;3735;50.136;11.062;2022-12-18T16:09:13;-7.10;99.90
7388;DHT22;3735;50.136;11.062;2022-12-18T16:11:42;-7.10;99.90
7388;DHT22;3735;50.136;11.062;2022-12-18T16:14:25;-7.10;99.90
7388;DHT22;3735;50.136;11.062;2022-12-18T16:17:03;-7.10;99.90
7388;DHT22;3735;50.136;11.062;2022-12-18T16:19:31;-7.20;99.90
7388;DHT22;3735;50.136;11.062;2022-12-18T16:21:57;-7.20;99.90
7388;DHT22;3735;50.136;11.062;2022-12-18T16:24:26;-7.20;99.90
7388;DHT22;3735;50.136;11.062;2022-12-18T16:26:55;-7.10;99.90
7388;DHT22;3735;50.136;11.062;2022-12-18T16:29:23;-7.20;99.90
7388;DHT22;3735;50.136;11.062;2022-12-18T16:31:56;-7.10;99.90
7388;DHT22;3735;50.136;11.062;2022-12-18T16:34:28;-7.20;99.90
7388;DHT22;3735;50.136;11.062;2022-12-18T16:37:06;-7.20;99.90
7388;DHT22;3735;50.136;11.062;2022-12-18T16:39:34;-7.20;99.90
7388;DHT22;3735;50.136;11.062;2022-12-18T16:42:05;-7.20;99.90
7388;DHT22;3735;50.136;11.062;2022-12-18T16:44:45;-7.20;99.90
7388;DHT22;3735;50.136;11.062;2022-12-18T16:47:12;-7.20;99.90
7388;DHT22;3735;50.136;11.062;2022-12-18T16:49:38;-7.10;99.90
7388;DHT22;3735;50.136;11.062;2022-12-18T16:52:05;-7.10;99.90
7388;DHT22;3735;50.136;11.062;2022-12-18T16:54:32;-7.10;99.90
7388;DHT22;3735;50.136;11.062;2022-12-18T16:56:59;-7.10;99.90
7388;DHT22;3735;50.136;11.062;2022-12-18T16:59:25;-7.10;99.90
7388;DHT22;3735;50.136;11.062;2022-12-18T17:01:52;-7.10;99.90
7388;DHT22;3735;50.136;11.062;2022-12-18T17:04:19;-7.00;99.90
7388;DHT22;3735;50.136;11.062;2022-12-18T17:06:45;-6.90;99.90
7388;DHT22;3735;50.136;11.062;2022-12-18T17:09:17;-6.80;99.90
7388;DHT22;3735;50.136;11.062;2022-12-18T17:11:53;-6.70;99.90
7388;DHT22;3735;50.136;11.062;2022-12-18T17:14:22;-6.70;99.90
7388;DHT22;3735;50.136;11.062;2022-12-18T17:16:49;-6.60;99.90
7388;DHT22;3735;50.136;11.062;2022-12-18T17:19:15;-6.60;99.90
7388;DHT22;3735;50.136;11.062;2022-12-18T17:21:42;-6.50;99.90
7388;DHT22;3735;50.136;11.062;2022-12-18T17:24:09;-6.60;99.90
7388;DHT22;3735;50.136;11.062;2022-12-18T17:26:35;-6.50;99.90
7388;DHT22;3735;50.136;11.062;2022-12-18T17:29:02;-6.50;99.90
7388;DHT22;3735;50.136;11.062;2022-12-18T17:31:29;-6.50;99.90
7388;DHT22;3735;50.136;11.062;2022-12-18T17:33:56;-6.40;99.90
7388;DHT22;3735;50.136;11.062;2022-12-18T17:36:23;-6.30;99.90
7388;DHT22;3735;50.136;11.062;2022-12-18T17:38:54;-6.30;99.90
7388;DHT22;3735;50.136;11.062;2022-12-18T17:41:22;-6.20;99.90
7388;DHT22;3735;50.136;11.062;2022-12-18T17:43:56;-6.20;99.90
7388;DHT22;3735;50.136;11.062;2022-12-18T17:46:25;-6.20;99.90
7388;DHT22;3735;50.136;11.062;2022-12-18T17:48:54;-6.10;99.90
7388;DHT22;3735;50.136;11.062;2022-12-18T17:51:20;-6.20;99.90
7388;DHT22;3735;50.136;11.062;2022-12-18T17:53:46;-6.20;99.90
7388;DHT22;3735;50.136;11.062;2022-12-18T17:56:14;-6.20;99.90
7388;DHT22;3735;50.136;11.062;2022-12-18T17:58:42;-6.20;99.90
7388;DHT22;3735;50.136;11.062;2022-12-18T18:01:14;-6.20;99.90
7388;DHT22;3735;50.136;11.062;2022-12-18T18:03:42;-6.20;99.90
7388;DHT22;3735;50.136;11.062;2022-12-18T18:06:08;-6.10;99.90
7388;DHT22;3735;50.136;11.062;2022-12-18T18:08:34;-6.10;99.90
7388;DHT22;3735;50.136;11.062;2022-12-18T18:11:11;-6.20;99.90
7388;DHT22;3735;50.136;11.062;2022-12-18T18:13:58;-6.10;99.90
7388;DHT22;3735;50.136;11.062;2022-12-18T18:16:36;-6.20;99.90
7388;DHT22;3735;50.136;11.062;2022-12-18T18:19:06;-6.10;99.90
7388;DHT22;3735;50.136;11.062;2022-12-18T18:21:38;-6.10;99.90
7388;DHT22;3735;50.136;11.062;2022-12-18T18:24:06;-6.10;99.90
7388;DHT22;3735;50.136;11.062;2022-12-18T18:26:33;-6.00;99.90
7388;DHT22;3735;50.136;11.062;2022-12-18T18:29:01;-5.90;99.90
7388;DHT22;3735;50.136;11.062;2022-12-18T18:31:29;-5.80;99.90
7388;DHT22;3735;50.136;11.062;2022-12-18T18:33:56;-5.80;99.90
7388;DHT22;3735;50.136;11.062;2022-12-18T18:36:22;-5.70;99.90
7388;DHT22;3735;50.136;11.062;2022-12-18T18:38:49;-5.60;99.90
7388;DHT22;3735;50.136;11.062;2022-12-18T18:41:16;-5.60;99.90